Time;durP1;ratioP1;P1;durP2;ratioP2;P2;SDS_P1;SDS_P2;PMS_P1;PMS_P2;Temp;Humidity;BMP_temperature;BMP_pressure;BME280_temperature;BME280_humidity;BME280_pressure;Samples;Min_cycle;Max_cycle;Signal;HPM_P1;HPM_P2
2023/05/09 00:02:15;;;;;;;;;;;;;;;10.96;45.58;101256.47;5326011;32;34408;-84
2023/05/09 00:05:18;;;;;;;;;;;;;;;11.44;44.48;101242.00;5331640;32;44335;-84
2023/05/09 00:08:20;;;;;;;;;;;;;;;11.13;45.36;101253.38;5309237;32;35226;-84
2023/05/09 00:11:22;;;;;;;;;;;;;;;11.84;43.43;101239.91;5325132;32;34405;-84
2023/05/09 00:14:24;;;;;;;;;;;;;;;10.67;45.83;101249.34;5336972;32;34285;-72
2023/05/09 00:17:27;;;;;;;;;;;;;;;10.85;45.92;101253.28;5311239;32;35533;-85
2023/05/09 00:20:29;;;;;;;;;;;;;;;11.58;44.04;101245.06;5341933;32;34617;-71
2023/05/09 00:23:31;;;;;;;;;;;;;;;10.89;45.40;101249.66;5323079;32;34167;-71
2023/05/09 00:26:33;;;;;;;;;;;;;;;10.88;45.35;101244.41;5326029;32;36526;-84
2023/05/09 00:29:35;;;;;;;;;;;;;;;10.93;45.46;101250.44;5336178;32;34526;-85
2023/05/09 00:32:39;;;;;;;;;;;;;;;10.26;47.32;101242.50;5324922;32;35056;-85
2023/05/09 00:35:41;;;;;;;;;;;;;;;11.02;45.52;101239.69;5336623;32;35365;-71
2023/05/09 00:38:43;;;;;;;;;;;;;;;11.01;45.45;101230.03;5325159;32;34416;-70
2023/05/09 00:41:45;;;;;;;;;;;;;;;11.15;45.21;101230.53;5336261;32;34891;-78
2023/05/09 00:44:46;;;;;;;;;;;;;;;10.76;46.12;101233.34;5325197;32;46210;-70
2023/05/09 00:47:48;;;;;;;;;;;;;;;10.70;46.38;101238.75;5308272;32;35381;-70
2023/05/09 00:50:51;;;;;;;;;;;;;;;11.11;45.38;101239.41;5317376;32;35588;-84
2023/05/09 00:53:54;;;;;;;;;;;;;;;11.01;45.20;101232.66;5324825;32;34424;-70
2023/05/09 00:56:55;;;;;;;;;;;;;;;10.91;45.57;101231.22;5335782;32;34167;-69
2023/05/09 00:59:58;;;;;;;;;;;;;;;11.27;44.77;101230.19;5324546;32;34316;-85
2023/05/09 01:03:00;;;;;;;;;;;;;;;10.46;47.03;101227.09;5322574;32;32981;-70
2023/05/09 01:06:22;;;;;;;;;;;;;;;10.52;47.00;101232.22;5328316;32;34323;-70
2023/05/09 01:09:40;;;;;;;;;;;;;;;10.83;46.07;101239.31;5325125;32;44939;-85
2023/05/09 01:12:44;;;;;;;;;;;;;;;10.68;46.51;101237.06;5335409;32;34005;-70
2023/05/09 01:15:54;;;;;;;;;;;;;;;11.00;45.66;101231.81;5325623;32;44745;-70
2023/05/09 01:19:21;;;;;;;;;;;;;;;10.96;45.97;101230.19;5337938;32;35716;-71
2023/05/09 01:22:29;;;;;;;;;;;;;;;11.45;44.79;101227.91;5319798;32;46191;-70
2023/05/09 01:25:44;;;;;;;;;;;;;;;11.29;44.51;101227.50;5323936;32;34303;-70
2023/05/09 01:29:06;;;;;;;;;;;;;;;11.24;45.58;101227.63;5322865;32;44368;-70
2023/05/09 01:32:09;;;;;;;;;;;;;;;10.83;46.44;101228.78;5290419;32;35880;-84
2023/05/09 01:35:12;;;;;;;;;;;;;;;10.83;46.39;101220.91;5316283;32;35499;-84
2023/05/09 01:38:16;;;;;;;;;;;;;;;10.69;46.49;101230.91;5317943;32;34323;-78
2023/05/09 01:41:18;;;;;;;;;;;;;;;10.39;47.30;101232.56;5310665;32;46184;-83
2023/05/09 01:44:20;;;;;;;;;;;;;;;10.55;46.65;101228.62;5334523;32;35051;-84
2023/05/09 01:47:22;;;;;;;;;;;;;;;10.26;47.73;101227.59;5311203;32;34520;-71
2023/05/09 01:50:24;;;;;;;;;;;;;;;10.08;48.01;101227.16;5326297;32;34016;-71
2023/05/09 01:53:26;;;;;;;;;;;;;;;10.36;47.71;101222.97;5305636;32;34346;-71
2023/05/09 01:56:28;;;;;;;;;;;;;;;10.20;47.54;101219.84;5327132;32;34953;-70
2023/05/09 01:59:31;;;;;;;;;;;;;;;9.83;48.74;101219.81;5318193;32;34330;-70
2023/05/09 02:02:32;;;;;;;;;;;;;;;10.73;46.73;101216.78;5326529;32;34614;-70
2023/05/09 02:05:35;;;;;;;;;;;;;;;10.32;47.44;101221.34;5327562;32;34794;-70
2023/05/09 02:08:37;;;;;;;;;;;;;;;9.77;49.14;101218.19;5311729;32;34737;-86
2023/05/09 02:11:39;;;;;;;;;;;;;;;10.06;48.55;101210.56;5338081;32;35761;-77
2023/05/09 02:14:41;;;;;;;;;;;;;;;9.95;48.49;101210.81;5327398;32;34442;-76
2023/05/09 02:17:43;;;;;;;;;;;;;;;9.61;49.61;101208.97;5314866;32;34884;-70
2023/05/09 02:20:45;;;;;;;;;;;;;;;9.84;48.77;101205.81;5333484;32;37124;-84
2023/05/09 02:23:47;;;;;;;;;;;;;;;9.69;49.25;101204.41;5323931;32;44782;-84
2023/05/09 02:26:49;;;;;;;;;;;;;;;9.86;48.63;101204.03;5335856;32;34445;-71
2023/05/09 02:29:52;;;;;;;;;;;;;;;9.68;49.22;101200.03;5312637;32;34327;-84
2023/05/09 02:33:02;;;;;;;;;;;;;;;9.77;49.19;101207.69;5321869;32;36547;-71
2023/05/09 02:36:04;;;;;;;;;;;;;;;9.48;49.61;101202.25;5323133;32;36498;-70
2023/05/09 02:39:06;;;;;;;;;;;;;;;10.29;48.04;101198.59;5324243;32;34299;-84
2023/05/09 02:42:09;;;;;;;;;;;;;;;9.74;49.61;101199.06;5334237;32;35893;-70
2023/05/09 02:45:11;;;;;;;;;;;;;;;9.72;49.44;101200.81;5324660;32;34431;-84
2023/05/09 02:48:13;;;;;;;;;;;;;;;9.82;49.74;101198.88;5317449;32;35600;-83
2023/05/09 02:51:15;;;;;;;;;;;;;;;9.67;50.16;101193.06;5322630;32;36333;-82
2023/05/09 02:54:17;;;;;;;;;;;;;;;9.69;50.22;101196.53;5334076;32;34928;-83
2023/05/09 02:57:20;;;;;;;;;;;;;;;10.15;49.16;101184.94;5312317;32;34335;-83
2023/05/09 03:00:24;;;;;;;;;;;;;;;9.36;51.40;101195.50;5329808;32;35410;-85
2023/05/09 03:03:26;;;;;;;;;;;;;;;9.56;51.15;101195.06;5336151;32;34352;-71
2023/05/09 03:06:28;;;;;;;;;;;;;;;8.74;53.33;101204.59;5328637;32;35698;-70
2023/05/09 03:09:30;;;;;;;;;;;;;;;9.32;52.08;101195.59;5339833;32;34440;-70
2023/05/09 03:12:32;;;;;;;;;;;;;;;9.18;52.75;101199.37;5325846;32;34450;-70
2023/05/09 03:15:34;;;;;;;;;;;;;;;9.98;50.65;101193.25;5347106;32;34324;-70
2023/05/09 03:18:36;;;;;;;;;;;;;;;9.22;52.41;101194.94;5326681;32;34394;-84
2023/05/09 03:21:38;;;;;;;;;;;;;;;9.72;51.36;101191.22;5326221;32;34414;-84
2023/05/09 03:24:40;;;;;;;;;;;;;;;9.06;52.54;101189.13;5338708;32;35557;-70
2023/05/09 03:27:42;;;;;;;;;;;;;;;9.67;51.24;101187.81;5325617;32;35651;-70
2023/05/09 03:30:44;;;;;;;;;;;;;;;9.46;51.50;101194.38;5338293;32;34390;-84
2023/05/09 03:33:46;;;;;;;;;;;;;;;9.78;50.72;101188.41;5325120;32;44317;-84
2023/05/09 03:36:48;;;;;;;;;;;;;;;9.26;52.64;101193.09;5322514;32;34299;-84
2023/05/09 03:39:50;;;;;;;;;;;;;;;9.69;51.71;101196.53;5328346;32;34366;-84
2023/05/09 03:42:52;;;;;;;;;;;;;;;9.47;52.24;101201.38;5324922;32;34444;-70
2023/05/09 03:45:54;;;;;;;;;;;;;;;9.82;51.00;101207.59;5336590;32;35958;-83
2023/05/09 03:48:56;;;;;;;;;;;;;;;9.50;51.60;101203.06;5305986;32;34292;-70
2023/05/09 03:51:58;;;;;;;;;;;;;;;9.40;51.65;101206.78;5334346;32;34456;-78
2023/05/09 03:55:00;;;;;;;;;;;;;;;9.71;50.91;101205.22;5324819;32;34156;-83
2023/05/09 03:58:03;;;;;;;;;;;;;;;9.61;50.84;101211.59;5321192;32;34513;-71
2023/05/09 04:01:05;;;;;;;;;;;;;;;9.60;51.17;101214.25;5325325;32;34307;-70
2023/05/09 04:04:06;;;;;;;;;;;;;;;9.63;50.83;101204.53;5326127;32;35502;-70
2023/05/09 04:07:08;;;;;;;;;;;;;;;9.53;50.90;101203.00;5336412;32;34297;-83
2023/05/09 04:10:10;;;;;;;;;;;;;;;9.77;50.55;101201.59;5312362;32;34760;-83
2023/05/09 04:13:12;;;;;;;;;;;;;;;10.16;49.36;101205.03;5335632;32;35074;-70
2023/05/09 04:16:17;;;;;;;;;;;;;;;9.81;50.25;101207.66;5331010;32;45140;-70
2023/05/09 04:19:19;;;;;;;;;;;;;;;9.44;51.56;101205.81;5336567;32;34124;-84
2023/05/09 04:22:21;;;;;;;;;;;;;;;9.60;51.10;101204.62;5316296;32;35465;-71
2023/05/09 04:25:23;;;;;;;;;;;;;;;9.94;50.17;101211.72;5329886;32;34401;-85
2023/05/09 04:28:25;;;;;;;;;;;;;;;10.36;49.50;101208.97;5338780;32;36116;-70
2023/05/09 04:31:27;;;;;;;;;;;;;;;10.10;49.49;101205.19;5326519;32;34470;-69
2023/05/09 04:34:30;;;;;;;;;;;;;;;10.33;48.76;101209.06;5337501;32;34352;-70
2023/05/09 04:37:32;;;;;;;;;;;;;;;10.61;48.81;101206.59;5326270;32;35356;-84
2023/05/09 04:40:35;;;;;;;;;;;;;;;10.35;48.55;101207.25;5333654;32;34767;-71
2023/05/09 04:43:37;;;;;;;;;;;;;;;10.58;48.53;101207.53;5314049;32;34199;-84
2023/05/09 04:46:39;;;;;;;;;;;;;;;11.04;47.12;101201.88;5320978;32;34871;-70
2023/05/09 04:49:41;;;;;;;;;;;;;;;11.17;46.48;101201.53;5320508;32;33367;-84
2023/05/09 04:52:43;;;;;;;;;;;;;;;10.98;47.17;101202.06;5308066;32;35485;-84
2023/05/09 04:55:45;;;;;;;;;;;;;;;11.72;45.64;101202.53;5333159;32;43523;-71
2023/05/09 04:58:51;;;;;;;;;;;;;;;12.69;42.67;101195.87;5310521;32;34439;-85
2023/05/09 05:01:53;;;;;;;;;;;;;;;12.67;42.64;101195.03;5332637;32;34799;-84
2023/05/09 05:04:55;;;;;;;;;;;;;;;12.40;43.15;101200.34;5331142;32;37467;-84
2023/05/09 05:08:12;;;;;;;;;;;;;;;13.26;41.63;101197.31;5316312;32;34272;-71
2023/05/09 05:11:14;;;;;;;;;;;;;;;12.92;41.93;101201.16;5337446;32;34718;-72
2023/05/09 05:14:15;;;;;;;;;;;;;;;14.83;38.23;101198.91;5323226;32;45279;-77
2023/05/09 05:17:18;;;;;;;;;;;;;;;14.01;39.00;101207.63;5335018;32;36378;-70
2023/05/09 05:20:20;;;;;;;;;;;;;;;13.77;40.11;101207.66;5325494;32;34238;-70
2023/05/09 05:23:22;;;;;;;;;;;;;;;15.09;37.15;101203.03;5324669;32;35882;-79
2023/05/09 05:26:24;;;;;;;;;;;;;;;13.84;39.87;101208.28;5337437;32;34344;-69
2023/05/09 05:29:26;;;;;;;;;;;;;;;15.85;36.56;101198.66;5316130;32;34487;-68
2023/05/09 05:32:28;;;;;;;;;;;;;;;16.39;35.53;101191.53;5333097;32;34532;-68
2023/05/09 05:35:30;;;;;;;;;;;;;;;15.89;36.00;101202.00;5331933;32;34204;-67
2023/05/09 05:38:32;;;;;;;;;;;;;;;16.66;34.62;101194.56;5335642;32;35246;-68
2023/05/09 05:41:34;;;;;;;;;;;;;;;15.76;35.82;101201.72;5321642;32;34822;-81
2023/05/09 05:44:36;;;;;;;;;;;;;;;15.54;36.18;101191.25;5330160;32;34336;-65
2023/05/09 05:47:38;;;;;;;;;;;;;;;15.91;35.09;101185.09;5319484;32;33049;-82
2023/05/09 05:50:40;;;;;;;;;;;;;;;16.52;35.20;101186.47;5314138;32;36297;-80
2023/05/09 05:53:42;;;;;;;;;;;;;;;18.03;32.39;101188.06;5318391;32;35388;-70
2023/05/09 05:56:44;;;;;;;;;;;;;;;17.58;32.88;101190.56;5330496;32;34295;-69
2023/05/09 05:59:47;;;;;;;;;;;;;;;17.37;33.47;101199.69;5338187;32;47092;-76
2023/05/09 06:02:49;;;;;;;;;;;;;;;18.73;31.28;101186.59;5326665;32;35434;-68
2023/05/09 06:05:53;;;;;;;;;;;;;;;17.73;32.36;101188.03;5309128;32;35326;-69
2023/05/09 06:08:55;;;;;;;;;;;;;;;16.54;34.16;101195.19;5326585;32;34653;-89
2023/05/09 06:11:57;;;;;;;;;;;;;;;17.68;32.94;101190.03;5335652;32;34404;-83
2023/05/09 06:14:59;;;;;;;;;;;;;;;17.34;33.68;101194.56;5332124;32;34645;-86
2023/05/09 06:18:01;;;;;;;;;;;;;;;19.58;30.17;101187.56;5320792;32;34364;-86
2023/05/09 06:21:03;;;;;;;;;;;;;;;20.94;28.33;101181.16;5334510;32;36782;-66
2023/05/09 06:24:05;;;;;;;;;;;;;;;19.04;30.15;101190.91;5339692;32;34386;-68
2023/05/09 06:27:20;;;;;;;;;;;;;;;20.64;28.83;101178.78;5334004;32;45221;-85
2023/05/09 06:30:22;;;;;;;;;;;;;;;19.56;29.84;101176.13;5342502;32;34426;-67
2023/05/09 06:33:28;;;;;;;;;;;;;;;19.42;30.10;101175.19;5336919;32;34100;-69
2023/05/09 06:36:31;;;;;;;;;;;;;;;19.23;30.88;101176.44;5333310;32;34237;-78
2023/05/09 06:39:33;;;;;;;;;;;;;;;20.61;28.43;101170.97;5326679;32;37762;-69
2023/05/09 06:42:35;;;;;;;;;;;;;;;20.53;28.79;101169.69;5322969;32;34411;-67
2023/05/09 06:45:37;;;;;;;;;;;;;;;20.03;28.83;101173.06;5328362;32;36327;-83
2023/05/09 06:48:39;;;;;;;;;;;;;;;20.71;27.99;101167.56;5309378;32;34384;-69
2023/05/09 06:51:41;;;;;;;;;;;;;;;21.13;27.00;101165.53;5340400;32;34712;-69
2023/05/09 06:54:43;;;;;;;;;;;;;;;20.24;28.42;101162.78;5324288;32;35640;-70
2023/05/09 06:57:45;;;;;;;;;;;;;;;20.14;28.31;101161.66;5337590;32;35944;-78
2023/05/09 07:00:47;;;;;;;;;;;;;;;20.91;27.37;101158.16;5324999;32;44710;-71
2023/05/09 07:03:49;;;;;;;;;;;;;;;21.20;27.27;101153.44;5317676;32;34752;-68
2023/05/09 07:06:53;;;;;;;;;;;;;;;20.61;28.13;101154.94;5322322;32;36195;-71
2023/05/09 07:09:55;;;;;;;;;;;;;;;21.46;26.78;101148.91;5313649;32;32892;-70
2023/05/09 07:13:12;;;;;;;;;;;;;;;20.82;27.90;101142.78;5338018;32;35387;-70
2023/05/09 07:16:17;;;;;;;;;;;;;;;19.67;29.48;101153.19;5328974;32;35530;-83
2023/05/09 07:19:19;;;;;;;;;;;;;;;20.50;28.51;101156.56;5331460;32;45100;-67
2023/05/09 07:22:21;;;;;;;;;;;;;;;21.72;26.82;101148.84;5329991;32;35423;-71
2023/05/09 07:25:23;;;;;;;;;;;;;;;20.08;28.93;101143.41;5335779;32;35248;-69
2023/05/09 07:28:26;;;;;;;;;;;;;;;20.31;28.86;101132.03;5335891;32;35881;-68
2023/05/09 07:31:28;;;;;;;;;;;;;;;19.61;29.86;101126.06;5325173;32;36034;-70
2023/05/09 07:34:30;;;;;;;;;;;;;;;21.38;27.29;101127.22;5330071;32;35852;-69
2023/05/09 07:37:33;;;;;;;;;;;;;;;22.82;25.52;101110.97;5331758;32;34823;-67
2023/05/09 07:40:37;;;;;;;;;;;;;;;21.66;27.08;101117.19;5331942;32;35513;-70
2023/05/09 07:43:39;;;;;;;;;;;;;;;22.06;26.24;101118.56;5313999;32;35513;-70
2023/05/09 07:46:42;;;;;;;;;;;;;;;22.51;25.98;101118.72;5328192;32;37403;-70
2023/05/09 07:49:45;;;;;;;;;;;;;;;21.35;27.24;101114.06;5323348;32;34967;-71
2023/05/09 07:52:47;;;;;;;;;;;;;;;22.24;26.06;101112.84;5324953;32;45086;-70
2023/05/09 07:55:49;;;;;;;;;;;;;;;23.25;25.19;101095.03;5329018;32;37007;-81
2023/05/09 07:58:51;;;;;;;;;;;;;;;23.91;24.13;101081.56;5336118;32;35118;-79
2023/05/09 08:01:56;;;;;;;;;;;;;;;25.57;21.85;101085.78;5324795;32;34595;-80
2023/05/09 08:04:59;;;;;;;;;;;;;;;22.97;24.46;101094.56;5331099;32;37589;-70
2023/05/09 08:08:01;;;;;;;;;;;;;;;21.56;26.09;101096.44;5329586;32;35559;-80
2023/05/09 08:11:03;;;;;;;;;;;;;;;24.53;22.68;101078.03;5335261;32;36549;-70
2023/05/09 08:14:08;;;;;;;;;;;;;;;23.77;23.74;101080.03;5325335;32;34165;-70
2023/05/09 08:17:10;;;;;;;;;;;;;;;23.81;23.91;101084.16;5337965;32;35176;-70
2023/05/09 08:20:12;;;;;;;;;;;;;;;22.59;25.28;101078.78;5331450;32;35516;-70
2023/05/09 08:23:14;;;;;;;;;;;;;;;22.99;24.74;101072.97;5316531;32;35261;-70
2023/05/09 08:26:16;;;;;;;;;;;;;;;23.34;24.57;101074.66;5329701;32;45343;-80
2023/05/09 08:29:18;;;;;;;;;;;;;;;23.05;24.94;101067.13;5321117;32;32607;-81
2023/05/09 08:32:20;;;;;;;;;;;;;;;25.11;22.48;101067.53;5320849;32;35070;-70
2023/05/09 08:35:22;;;;;;;;;;;;;;;23.58;24.19;101069.94;5325817;32;34933;-80
2023/05/09 08:38:24;;;;;;;;;;;;;;;24.27;23.25;101070.34;5335257;32;35692;-79
2023/05/09 08:41:27;;;;;;;;;;;;;;;22.10;26.04;101074.59;5333205;32;34106;-70
2023/05/09 08:44:29;;;;;;;;;;;;;;;23.29;24.53;101060.75;5325795;32;35454;-71
2023/05/09 08:47:33;;;;;;;;;;;;;;;24.20;23.83;101054.91;5302911;32;34318;-78
2023/05/09 08:50:35;;;;;;;;;;;;;;;24.58;22.73;101059.69;5325574;32;34442;-84
2023/05/09 08:53:38;;;;;;;;;;;;;;;24.36;23.73;101049.97;5337582;32;35485;-77
2023/05/09 08:56:40;;;;;;;;;;;;;;;24.64;23.22;101048.38;5311780;32;34486;-69
2023/05/09 08:59:42;;;;;;;;;;;;;;;25.28;21.96;101048.06;5333413;32;34223;-75
2023/05/09 09:02:44;;;;;;;;;;;;;;;24.81;22.30;101050.44;5323333;32;35585;-74
2023/05/09 09:05:46;;;;;;;;;;;;;;;26.65;20.04;101045.12;5330652;32;44752;-76
2023/05/09 09:08:49;;;;;;;;;;;;;;;26.84;20.30;101028.00;5321027;32;34066;-67
2023/05/09 09:11:52;;;;;;;;;;;;;;;24.25;23.56;101034.72;5316654;32;35611;-76
2023/05/09 09:14:54;;;;;;;;;;;;;;;22.24;25.57;101037.88;5333327;32;35689;-75
2023/05/09 09:17:57;;;;;;;;;;;;;;;23.56;23.36;101031.62;5330051;32;35113;-75
2023/05/09 09:21:05;;;;;;;;;;;;;;;25.60;21.45;101017.34;5315932;32;37703;-67
2023/05/09 09:24:07;;;;;;;;;;;;;;;26.23;20.45;101014.19;5311288;32;36261;-68
2023/05/09 09:27:10;;;;;;;;;;;;;;;25.76;21.05;101025.75;5313890;32;34288;-76
2023/05/09 09:30:12;;;;;;;;;;;;;;;25.17;21.40;101037.41;5327462;32;35456;-76
2023/05/09 09:33:23;;;;;;;;;;;;;;;24.53;21.76;101032.34;5327980;32;44996;-68
2023/05/09 09:36:27;;;;;;;;;;;;;;;26.27;20.01;101021.81;5329029;32;35481;-79
2023/05/09 09:39:29;;;;;;;;;;;;;;;27.95;18.42;101017.84;5303991;32;35147;-72
2023/05/09 09:42:42;;;;;;;;;;;;;;;25.15;21.59;101036.72;5338565;32;35820;-78
2023/05/09 09:45:49;;;;;;;;;;;;;;;23.97;22.87;101027.34;5334170;32;34349;-75
2023/05/09 09:48:55;;;;;;;;;;;;;;;25.43;21.42;101018.03;5310107;32;45183;-67
2023/05/09 09:51:57;;;;;;;;;;;;;;;25.98;20.84;101031.81;5337775;32;35395;-77
2023/05/09 09:55:00;;;;;;;;;;;;;;;24.33;22.55;101020.63;5324960;32;33242;-70
2023/05/09 09:58:01;;;;;;;;;;;;;;;26.36;20.16;101017.41;5336473;32;34337;-77
2023/05/09 10:01:07;;;;;;;;;;;;;;;24.27;22.59;101027.37;5325180;32;34399;-70
2023/05/09 10:04:14;;;;;;;;;;;;;;;23.34;23.51;101018.31;5309903;32;34325;-72
2023/05/09 10:07:17;;;;;;;;;;;;;;;23.98;22.88;101021.00;5333497;32;44498;-71
2023/05/09 10:10:22;;;;;;;;;;;;;;;24.58;22.21;101003.25;5311245;32;34415;-74
2023/05/09 10:13:24;;;;;;;;;;;;;;;22.31;25.50;101006.97;5322413;32;34335;-68
2023/05/09 10:16:26;;;;;;;;;;;;;;;21.39;26.43;101016.63;5313003;32;33163;-75
2023/05/09 10:19:45;;;;;;;;;;;;;;;21.40;26.78;101014.81;5322604;32;34326;-70
2023/05/09 10:22:47;;;;;;;;;;;;;;;21.67;26.38;101019.91;5319435;32;46526;-66
2023/05/09 10:26:02;;;;;;;;;;;;;;;23.61;23.18;100999.94;5320283;32;34501;-67
2023/05/09 10:29:06;;;;;;;;;;;;;;;24.18;21.67;101003.16;5329712;32;35370;-71
2023/05/09 10:32:17;;;;;;;;;;;;;;;23.58;22.80;101010.06;5314793;32;32366;-69
2023/05/09 10:35:19;;;;;;;;;;;;;;;24.45;21.30;100997.25;5337750;32;47072;-67
2023/05/09 10:38:23;;;;;;;;;;;;;;;25.59;20.60;100988.75;5326020;32;35048;-69
2023/05/09 10:41:25;;;;;;;;;;;;;;;24.20;22.50;100993.97;5314818;32;35991;-67
2023/05/09 10:44:27;;;;;;;;;;;;;;;22.11;24.84;100995.97;5332964;32;34324;-71
2023/05/09 10:47:32;;;;;;;;;;;;;;;21.12;26.55;101011.44;5314269;32;35020;-80
2023/05/09 10:50:35;;;;;;;;;;;;;;;20.88;25.48;100997.22;5325176;32;34997;-71
2023/05/09 10:53:44;;;;;;;;;;;;;;;22.53;23.98;100990.88;5328808;32;34464;-71
2023/05/09 10:56:46;;;;;;;;;;;;;;;24.52;21.95;100984.97;5318353;32;45873;-70
2023/05/09 10:59:50;;;;;;;;;;;;;;;23.27;24.44;100991.16;5332379;32;34647;-84
2023/05/09 11:03:05;;;;;;;;;;;;;;;22.29;25.26;100987.50;5318557;32;34456;-85
2023/05/09 11:06:09;;;;;;;;;;;;;;;24.53;22.85;100974.09;5338236;32;34296;-72
2023/05/09 11:09:31;;;;;;;;;;;;;;;25.10;21.89;100985.16;5336301;32;34439;-85
2023/05/09 11:12:33;;;;;;;;;;;;;;;24.91;22.49;100987.78;5337069;32;36185;-85
2023/05/09 11:15:35;;;;;;;;;;;;;;;24.85;22.38;100976.59;5316811;32;36149;-70
2023/05/09 11:18:51;;;;;;;;;;;;;;;23.05;24.10;100975.97;5318073;32;35351;-72
2023/05/09 11:22:12;;;;;;;;;;;;;;;23.10;24.27;100962.19;5323429;32;44847;-71
2023/05/09 11:25:15;;;;;;;;;;;;;;;22.07;25.44;100966.84;5320128;32;34791;-69
2023/05/09 11:28:28;;;;;;;;;;;;;;;26.19;20.01;100959.72;5340333;32;44388;-85
2023/05/09 11:31:30;;;;;;;;;;;;;;;25.18;21.50;100958.41;5331449;32;35871;-71
2023/05/09 11:34:32;;;;;;;;;;;;;;;24.74;22.50;100957.91;5312511;32;34088;-76
2023/05/09 11:37:45;;;;;;;;;;;;;;;22.25;25.37;100953.88;5323045;32;34526;-84
2023/05/09 11:40:47;;;;;;;;;;;;;;;23.05;24.17;100956.34;5327573;32;43796;-70
2023/05/09 11:43:50;;;;;;;;;;;;;;;23.42;23.37;100957.69;5336723;32;34495;-76
2023/05/09 11:46:52;;;;;;;;;;;;;;;22.34;25.58;100945.09;5322522;32;36147;-77
2023/05/09 11:49:55;;;;;;;;;;;;;;;22.63;23.80;100949.00;5315288;32;34552;-86
2023/05/09 11:52:57;;;;;;;;;;;;;;;22.55;23.92;100945.25;5330876;32;35268;-88
2023/05/09 11:56:05;;;;;;;;;;;;;;;22.95;23.44;100946.41;5335886;32;35665;-83
2023/05/09 11:59:07;;;;;;;;;;;;;;;22.85;23.96;100941.87;5322821;32;35825;-76
2023/05/09 12:02:09;;;;;;;;;;;;;;;23.47;23.02;100950.09;5319393;32;35667;-84
2023/05/09 12:05:13;;;;;;;;;;;;;;;25.57;20.66;100937.75;5323458;32;35812;-76
2023/05/09 12:08:15;;;;;;;;;;;;;;;24.90;21.42;100924.25;5314021;32;37840;-71
2023/05/09 12:11:17;;;;;;;;;;;;;;;27.66;18.20;100918.19;5316949;32;34784;-77
2023/05/09 12:14:30;;;;;;;;;;;;;;;29.65;16.40;100892.34;5333380;32;34601;-78
2023/05/09 12:17:32;;;;;;;;;;;;;;;29.07;16.48;100905.03;5328544;32;34591;-83
2023/05/09 12:20:39;;;;;;;;;;;;;;;29.38;16.36;100888.97;5336949;32;35573;-81
2023/05/09 12:23:42;;;;;;;;;;;;;;;28.25;17.56;100900.34;5322370;32;34602;-85
2023/05/09 12:26:45;;;;;;;;;;;;;;;29.26;16.88;100895.72;5333580;32;34392;-76
2023/05/09 12:29:47;;;;;;;;;;;;;;;25.43;20.99;100921.19;5328093;32;34506;-75
2023/05/09 12:32:49;;;;;;;;;;;;;;;23.50;23.24;100906.06;5331928;32;34559;-75
2023/05/09 12:36:02;;;;;;;;;;;;;;;23.35;23.45;100912.75;5323840;32;35181;-78
2023/05/09 12:39:08;;;;;;;;;;;;;;;24.07;22.64;100894.00;5334207;32;34940;-72
2023/05/09 12:42:13;;;;;;;;;;;;;;;23.54;23.36;100896.78;5322039;32;34729;-69
2023/05/09 12:45:15;;;;;;;;;;;;;;;23.23;23.93;100894.00;5322175;32;34320;-70
2023/05/09 12:48:21;;;;;;;;;;;;;;;22.29;25.18;100896.44;5312678;32;47065;-83
2023/05/09 12:51:23;;;;;;;;;;;;;;;22.22;25.46;100890.75;5330717;32;35932;-73
2023/05/09 12:54:26;;;;;;;;;;;;;;;21.42;26.99;100890.72;5317024;32;34278;-77
2023/05/09 12:57:28;;;;;;;;;;;;;;;21.21;27.47;100889.66;5334735;32;34141;-73
2023/05/09 13:00:42;;;;;;;;;;;;;;;20.94;27.81;100888.09;5332608;32;34551;-81
2023/05/09 13:03:44;;;;;;;;;;;;;;;22.16;25.96;100884.03;5327204;32;35429;-77
2023/05/09 13:06:51;;;;;;;;;;;;;;;21.47;27.18;100875.19;5315884;32;44523;-80
2023/05/09 13:09:53;;;;;;;;;;;;;;;20.81;28.61;100871.28;5323716;32;34074;-75
2023/05/09 13:12:56;;;;;;;;;;;;;;;21.00;28.22;100876.94;5334871;32;34571;-70
2023/05/09 13:15:58;;;;;;;;;;;;;;;21.26;27.79;100863.44;5331254;32;34337;-83
2023/05/09 13:19:04;;;;;;;;;;;;;;;20.49;29.33;100873.63;5338519;32;34309;-68
2023/05/09 13:22:06;;;;;;;;;;;;;;;21.75;27.41;100851.63;5327913;32;32885;-76
2023/05/09 13:25:08;;;;;;;;;;;;;;;21.25;27.95;100859.03;5346101;32;34626;-65
2023/05/09 13:28:10;;;;;;;;;;;;;;;21.31;28.07;100855.91;5330105;32;34645;-71
2023/05/09 13:31:12;;;;;;;;;;;;;;;22.21;26.47;100839.97;5313651;32;35526;-79
2023/05/09 13:34:15;;;;;;;;;;;;;;;21.75;27.01;100847.13;5342481;32;36798;-76
2023/05/09 13:37:17;;;;;;;;;;;;;;;22.01;26.87;100839.72;5326542;32;44721;-71
2023/05/09 13:40:19;;;;;;;;;;;;;;;20.94;28.40;100853.34;5345277;32;35463;-89
2023/05/09 13:43:21;;;;;;;;;;;;;;;20.93;28.39;100848.97;5327588;32;35398;-70
2023/05/09 13:46:23;;;;;;;;;;;;;;;20.97;28.20;100850.44;5336292;32;35440;-80
2023/05/09 13:49:26;;;;;;;;;;;;;;;20.65;29.06;100847.50;5306548;32;35250;-80
2023/05/09 13:52:28;;;;;;;;;;;;;;;20.87;28.96;100838.75;5325816;32;35421;-79
2023/05/09 13:55:30;;;;;;;;;;;;;;;21.22;28.54;100830.72;5335870;32;34348;-79
2023/05/09 13:58:33;;;;;;;;;;;;;;;21.61;27.95;100834.84;5312030;32;36651;-80
2023/05/09 14:01:35;;;;;;;;;;;;;;;20.25;29.71;100837.03;5322769;32;35814;-74
2023/05/09 14:04:37;;;;;;;;;;;;;;;20.45;29.53;100829.44;5311348;32;38183;-80
2023/05/09 14:07:39;;;;;;;;;;;;;;;20.94;28.70;100820.44;5327549;32;34320;-80
2023/05/09 14:10:43;;;;;;;;;;;;;;;20.95;28.85;100811.47;5324393;32;35497;-78
2023/05/09 14:13:47;;;;;;;;;;;;;;;21.23;28.23;100803.03;5309631;32;44986;-74
2023/05/09 14:16:49;;;;;;;;;;;;;;;20.94;28.46;100799.91;5330110;32;35610;-75
2023/05/09 14:19:51;;;;;;;;;;;;;;;19.33;31.37;100805.31;5311791;32;34874;-73
2023/05/09 14:22:54;;;;;;;;;;;;;;;19.64;30.85;100811.19;5320658;32;35441;-72
2023/05/09 14:25:57;;;;;;;;;;;;;;;20.83;28.65;100802.53;5325102;32;34364;-73
2023/05/09 14:28:59;;;;;;;;;;;;;;;20.22;29.76;100807.91;5327997;32;36160;-73
2023/05/09 14:32:01;;;;;;;;;;;;;;;20.98;28.08;100793.34;5330671;32;34463;-74
2023/05/09 14:35:04;;;;;;;;;;;;;;;21.81;26.58;100787.78;5329468;32;37254;-74
2023/05/09 14:38:06;;;;;;;;;;;;;;;19.62;29.69;100805.12;5323968;32;36425;-81
2023/05/09 14:41:08;;;;;;;;;;;;;;;20.26;28.95;100797.84;5320752;32;34882;-80
2023/05/09 14:44:10;;;;;;;;;;;;;;;20.29;29.42;100795.81;5337671;32;34337;-74
2023/05/09 14:47:12;;;;;;;;;;;;;;;20.63;28.79;100795.19;5321527;32;34281;-74
2023/05/09 14:50:14;;;;;;;;;;;;;;;20.31;29.29;100790.38;5311084;32;34164;-74
2023/05/09 14:53:17;;;;;;;;;;;;;;;20.77;28.91;100797.66;5317585;32;44843;-78
2023/05/09 14:56:19;;;;;;;;;;;;;;;20.45;29.49;100787.56;5332524;32;34373;-72
2023/05/09 14:59:21;;;;;;;;;;;;;;;20.25;30.02;100791.66;5326818;32;34391;-73
2023/05/09 15:02:24;;;;;;;;;;;;;;;20.62;29.61;100775.63;5329199;32;34402;-72
2023/05/09 15:05:26;;;;;;;;;;;;;;;20.45;30.04;100782.22;5323859;32;35961;-81
2023/05/09 15:08:28;;;;;;;;;;;;;;;20.33;30.09;100785.75;5328845;32;37070;-72
2023/05/09 15:11:30;;;;;;;;;;;;;;;19.97;30.73;100782.16;5332847;32;35447;-73
2023/05/09 15:14:52;;;;;;;;;;;;;;;19.39;31.82;100775.59;5335465;32;44908;-74
2023/05/09 15:17:54;;;;;;;;;;;;;;;20.28;30.51;100775.41;5323211;32;35156;-74
2023/05/09 15:20:56;;;;;;;;;;;;;;;20.71;29.70;100771.41;5329486;32;33669;-73
2023/05/09 15:23:58;;;;;;;;;;;;;;;19.87;30.88;100766.91;5328466;32;35586;-73
2023/05/09 15:27:01;;;;;;;;;;;;;;;20.64;29.61;100759.50;5325757;32;34251;-73
2023/05/09 15:30:03;;;;;;;;;;;;;;;20.65;29.26;100761.19;5328920;32;34133;-80
2023/05/09 15:33:06;;;;;;;;;;;;;;;20.87;29.38;100750.59;5313504;32;35416;-73
2023/05/09 15:36:08;;;;;;;;;;;;;;;20.69;29.44;100757.34;5325877;32;35497;-73
2023/05/09 15:39:10;;;;;;;;;;;;;;;21.01;29.03;100752.22;5317299;32;34243;-79
2023/05/09 15:42:13;;;;;;;;;;;;;;;20.24;30.17;100752.59;5338998;32;34512;-73
2023/05/09 15:45:15;;;;;;;;;;;;;;;20.91;29.16;100745.84;5330729;32;45262;-79